Time;durP1;ratioP1;P1;durP2;ratioP2;P2;SDS_P1;SDS_P2;PMS_P1;PMS_P2;Temp;Humidity;BMP_temperature;BMP_pressure;BME280_temperature;BME280_humidity;BME280_pressure;Samples;Min_cycle;Max_cycle;Signal;HPM_P1;HPM_P2
2022/08/18 00:02:18;;;;;;;7.57;4.47;;;23.50;87.70;;;;;;4994810;28;20027;-84
2022/08/18 00:04:44;;;;;;;6.43;4.10;;;23.50;87.70;;;;;;4982851;28;20398;-84
2022/08/18 00:07:14;;;;;;;6.30;3.95;;;23.40;87.70;;;;;;4981718;28;20125;-86
2022/08/18 00:09:40;;;;;;;6.88;4.03;;;23.50;87.60;;;;;;4981521;28;20034;-84
2022/08/18 00:12:18;;;;;;;6.35;3.88;;;23.50;87.70;;;;;;4981177;28;20037;-85
2022/08/18 00:14:45;;;;;;;6.47;4.18;;;23.50;87.60;;;;;;4980855;28;20027;-85
2022/08/18 00:17:11;;;;;;;6.30;3.70;;;23.50;87.60;;;;;;4981103;28;20520;-84
2022/08/18 00:19:36;;;;;;;7.38;4.03;;;23.50;87.50;;;;;;4980646;28;20030;-84
2022/08/18 00:22:02;;;;;;;6.60;3.67;;;23.40;87.30;;;;;;4980455;28;20026;-83
2022/08/18 00:24:27;;;;;;;7.22;4.10;;;23.60;87.40;;;;;;4980368;28;20481;-83
2022/08/18 00:26:53;;;;;;;6.18;3.58;;;23.50;87.30;;;;;;4997969;28;20049;-85
2022/08/18 00:29:19;;;;;;;5.60;3.78;;;23.50;87.40;;;;;;5001125;28;20054;-86
2022/08/18 00:31:45;;;;;;;7.18;4.40;;;23.50;87.40;;;;;;5000738;28;20088;-83
2022/08/18 00:34:10;;;;;;;6.78;3.70;;;23.50;87.40;;;;;;5001281;28;20027;-85
2022/08/18 00:36:36;;;;;;;6.22;3.95;;;23.50;87.50;;;;;;4983879;28;20027;-83
2022/08/18 00:39:02;;;;;;;6.22;3.92;;;23.50;87.60;;;;;;4982578;28;20026;-84
2022/08/18 00:41:28;;;;;;;6.72;3.90;;;23.50;87.60;;;;;;4982712;28;20041;-83
2022/08/18 00:43:55;;;;;;;6.57;3.80;;;23.50;87.70;;;;;;5000370;28;20034;-84
2022/08/18 00:46:29;;;;;;;6.07;3.65;;;23.40;87.70;;;;;;4982797;28;20065;-83
2022/08/18 00:48:59;;;;;;;7.43;4.13;;;23.50;87.80;;;;;;4982761;28;20030;-83
2022/08/18 00:51:41;;;;;;;6.35;3.97;;;23.40;87.80;;;;;;4998211;28;20034;-84
2022/08/18 00:54:29;;;;;;;5.97;3.60;;;23.50;87.70;;;;;;4982296;28;20026;-84
2022/08/18 00:56:59;;;;;;;6.60;4.03;;;23.50;87.80;;;;;;4982309;28;20385;-84
2022/08/18 00:59:41;;;;;;;7.63;4.07;;;23.50;87.70;;;;;;4999168;28;20058;-82
2022/08/18 01:02:11;;;;;;;6.35;3.53;;;23.50;87.60;;;;;;4982592;28;20065;-83
2022/08/18 01:04:54;;;;;;;6.77;3.87;;;23.50;87.50;;;;;;4982135;28;20032;-84
2022/08/18 01:07:25;;;;;;;6.18;3.83;;;23.50;87.40;;;;;;4981936;28;20027;-83
2022/08/18 01:09:50;;;;;;;6.18;3.47;;;23.50;87.40;;;;;;4999408;28;20029;-84
2022/08/18 01:12:17;;;;;;;6.95;4.10;;;23.50;87.40;;;;;;4981495;28;20026;-83
2022/08/18 01:14:45;;;;;;;5.70;3.85;;;23.50;87.40;;;;;;4981563;28;20053;-83
2022/08/18 01:22:46;;;;;;;6.22;4.00;;;23.50;87.60;;;;;;5001148;28;20044;-85
2022/08/18 01:27:56;;;;;;;6.60;3.95;;;23.40;87.70;;;;;;5002557;28;20512;-84
2022/08/18 01:30:24;;;;;;;5.80;3.85;;;23.40;87.80;;;;;;4984148;28;20030;-84
2022/08/18 01:32:51;;;;;;;5.80;3.72;;;23.40;87.80;;;;;;5000370;28;20018;-84
2022/08/18 01:35:19;;;;;;;6.47;3.75;;;23.40;87.80;;;;;;5001545;28;20117;-85
2022/08/18 01:37:45;;;;;;;6.25;3.95;;;23.40;87.80;;;;;;5000460;28;20019;-86
2022/08/18 01:40:14;;;;;;;6.68;3.65;;;23.40;87.70;;;;;;4982802;28;20022;-86
2022/08/18 01:42:42;;;;;;;5.60;3.60;;;23.40;87.80;;;;;;4983021;28;20026;-84
2022/08/18 01:45:08;;;;;;;6.20;3.95;;;23.40;87.70;;;;;;4999785;28;20443;-83
2022/08/18 01:47:35;;;;;;;6.82;4.03;;;23.40;87.70;;;;;;4999777;28;20489;-84
2022/08/18 01:50:02;;;;;;;5.72;3.50;;;23.50;87.60;;;;;;4998312;28;20021;-83
2022/08/18 01:52:28;;;;;;;6.28;3.85;;;23.50;87.50;;;;;;4982425;28;20035;-83
2022/08/18 01:54:56;;;;;;;7.10;4.00;;;23.50;87.50;;;;;;4981892;28;20026;-83
2022/08/18 01:57:22;;;;;;;5.97;3.75;;;23.50;87.50;;;;;;4981788;28;20023;-83
2022/08/18 01:59:48;;;;;;;6.20;3.97;;;23.50;87.60;;;;;;4999122;28;20497;-83
2022/08/18 02:02:18;;;;;;;6.15;3.90;;;23.40;88.00;;;;;;4981513;28;20030;-84
2022/08/18 02:04:45;;;;;;;6.10;3.97;;;23.40;87.60;;;;;;4998872;28;20054;-84
2022/08/18 02:07:12;;;;;;;6.65;3.75;;;23.40;87.70;;;;;;4980898;28;20026;-86
2022/08/18 02:09:38;;;;;;;6.07;3.67;;;23.40;87.80;;;;;;4980880;28;20033;-85
2022/08/18 02:12:06;;;;;;;6.32;4.00;;;23.40;87.80;;;;;;4998238;28;20030;-82
2022/08/18 02:14:32;;;;;;;6.88;4.13;;;23.40;87.80;;;;;;4981166;28;20022;-83
2022/08/18 02:17:00;;;;;;;6.00;3.95;;;23.40;87.90;;;;;;4997009;28;20034;-83
2022/08/18 02:19:25;;;;;;;6.65;3.90;;;23.40;87.90;;;;;;4980555;28;20026;-84
2022/08/18 02:21:52;;;;;;;6.13;3.70;;;23.40;88.40;;;;;;4996785;28;20029;-83
2022/08/18 02:24:18;;;;;;;6.30;4.20;;;23.40;87.80;;;;;;4998349;28;20050;-83
2022/08/18 02:26:44;;;;;;;6.22;4.00;;;23.40;87.80;;;;;;4980724;28;20031;-84
2022/08/18 02:29:10;;;;;;;6.22;4.05;;;23.40;87.80;;;;;;4979950;28;20026;-83
2022/08/18 02:31:35;;;;;;;5.80;3.60;;;23.40;87.70;;;;;;4997579;28;20027;-83
2022/08/18 02:34:01;;;;;;;6.50;3.67;;;23.50;87.70;;;;;;4988833;28;20025;-83
2022/08/18 02:36:27;;;;;;;6.28;4.03;;;23.40;87.50;;;;;;4999607;28;20026;-84
2022/08/18 02:38:52;;;;;;;6.32;3.85;;;23.50;87.50;;;;;;4999804;28;20025;-83
2022/08/18 02:41:19;;;;;;;6.07;3.90;;;23.40;88.00;;;;;;4999598;28;20045;-84
2022/08/18 02:43:44;;;;;;;6.25;4.00;;;23.40;87.50;;;;;;5016690;28;20026;-83
2022/08/18 02:46:10;;;;;;;5.85;3.88;;;23.40;87.60;;;;;;4998664;28;20075;-84
2022/08/18 02:48:35;;;;;;;5.78;3.67;;;23.40;87.60;;;;;;5016267;28;20422;-84
2022/08/18 02:51:03;;;;;;;7.05;4.00;;;23.40;87.70;;;;;;5015826;28;20033;-84
2022/08/18 02:53:29;;;;;;;5.75;3.67;;;23.40;87.80;;;;;;4998872;28;20026;-84
2022/08/18 02:56:15;;;;;;;6.57;4.07;;;23.40;87.90;;;;;;4998708;28;20030;-83
2022/08/18 02:58:41;;;;;;;5.72;3.90;;;23.40;87.90;;;;;;5016860;28;20025;-86
2022/08/18 03:01:06;;;;;;;5.82;3.92;;;23.30;87.90;;;;;;4998811;28;20231;-83
2022/08/18 03:03:32;;;;;;;5.45;3.50;;;23.40;88.00;;;;;;5016903;28;20025;-85
2022/08/18 03:05:57;;;;;;;5.50;3.35;;;23.30;87.90;;;;;;4998836;28;20034;-84
2022/08/18 03:08:23;;;;;;;5.95;3.80;;;23.40;87.90;;;;;;5016454;28;20122;-85
2022/08/18 03:10:51;;;;;;;5.32;3.58;;;23.30;87.80;;;;;;5015929;28;20081;-84
2022/08/18 03:13:17;;;;;;;7.05;4.40;;;23.40;87.90;;;;;;5016514;28;20508;-83
2022/08/18 03:15:43;;;;;;;6.18;3.67;;;23.40;87.80;;;;;;5000452;28;20032;-85
2022/08/18 03:18:10;;;;;;;6.20;3.85;;;23.40;87.70;;;;;;5020013;28;20014;-85
2022/08/18 03:20:36;;;;;;;6.68;4.07;;;23.50;87.70;;;;;;5001563;28;20029;-85
2022/08/18 03:23:02;;;;;;;6.20;4.15;;;23.40;87.50;;;;;;5001990;28;20397;-85
2022/08/18 03:25:28;;;;;;;5.85;3.95;;;23.40;87.50;;;;;;5001670;28;20397;-85
2022/08/18 03:27:54;;;;;;;6.90;3.90;;;23.40;87.50;;;;;;5018819;28;20034;-84
2022/08/18 03:30:19;;;;;;;6.40;4.05;;;23.40;87.60;;;;;;5018983;28;20034;-84
2022/08/18 03:32:46;;;;;;;6.63;4.07;;;23.40;87.70;;;;;;5001142;28;20022;-85
2022/08/18 03:35:13;;;;;;;6.43;3.90;;;23.40;87.70;;;;;;5000498;28;20105;-83
2022/08/18 03:37:39;;;;;;;6.20;4.07;;;23.30;87.70;;;;;;5000100;28;20052;-85
2022/08/18 03:40:05;;;;;;;6.53;4.00;;;23.40;87.90;;;;;;5017567;28;20025;-84
2022/08/18 03:42:32;;;;;;;7.22;4.43;;;23.40;87.90;;;;;;5000889;28;20037;-84
2022/08/18 03:44:57;;;;;;;7.13;4.30;;;23.30;87.90;;;;;;4999651;28;20033;-85
2022/08/18 03:47:23;;;;;;;6.82;4.22;;;23.30;87.90;;;;;;4999814;28;20485;-85
2022/08/18 03:49:48;;;;;;;6.43;4.15;;;23.30;88.00;;;;;;4999341;28;20022;-83
2022/08/18 03:52:14;;;;;;;5.70;3.90;;;23.30;88.00;;;;;;5017329;28;20041;-84
2022/08/18 03:54:40;;;;;;;5.80;3.95;;;23.30;87.90;;;;;;4999221;28;20117;-84
2022/08/18 03:57:09;;;;;;;6.15;4.00;;;23.30;87.90;;;;;;4998904;28;20037;-86
2022/08/18 03:59:35;;;;;;;6.05;4.00;;;23.40;87.90;;;;;;4998922;28;20403;-85
2022/08/18 04:02:03;;;;;;;6.40;4.13;;;23.40;87.80;;;;;;5016059;28;20164;-81
2022/08/18 04:04:29;;;;;;;7.68;4.15;;;23.40;87.70;;;;;;5025598;28;20026;-83
2022/08/18 04:07:03;;;;;;;7.07;4.35;;;23.40;87.60;;;;;;5020412;28;20061;-84
2022/08/18 04:09:30;;;;;;;5.95;3.92;;;23.40;87.60;;;;;;5002777;28;20076;-84
2022/08/18 04:11:57;;;;;;;6.82;4.18;;;23.40;87.60;;;;;;5002734;28;20051;-83
2022/08/18 04:14:27;;;;;;;5.53;3.53;;;23.40;87.60;;;;;;5002596;28;20061;-82
2022/08/18 04:16:53;;;;;;;6.13;4.03;;;23.40;87.70;;;;;;5002950;28;20497;-83
2022/08/18 04:19:18;;;;;;;6.90;4.18;;;23.30;87.70;;;;;;5020479;28;20030;-86
2022/08/18 04:21:44;;;;;;;6.72;4.38;;;23.40;87.80;;;;;;5002595;28;20121;-81
2022/08/18 04:24:12;;;;;;;6.82;4.18;;;23.30;87.80;;;;;;5003916;28;20056;-82
2022/08/18 04:26:42;;;;;;;6.15;4.10;;;23.30;87.90;;;;;;5021729;28;20021;-83
2022/08/18 04:29:09;;;;;;;7.55;4.13;;;23.30;87.90;;;;;;5021739;28;20060;-82
2022/08/18 04:31:36;;;;;;;5.85;4.03;;;23.30;88.00;;;;;;5039240;28;20041;-82
2022/08/18 04:34:02;;;;;;;6.38;4.13;;;23.30;88.00;;;;;;5012138;28;20018;-84
2022/08/18 04:36:30;;;;;;;6.45;4.50;;;23.30;88.50;;;;;;5003185;28;20519;-85
2022/08/18 04:38:57;;;;;;;6.30;4.20;;;23.30;87.90;;;;;;5003803;28;20037;-85
2022/08/18 04:41:25;;;;;;;5.85;3.72;;;23.30;88.00;;;;;;5003317;28;20120;-84
2022/08/18 04:43:56;;;;;;;6.40;3.92;;;23.30;87.90;;;;;;5001567;28;20041;-84
2022/08/18 04:46:22;;;;;;;6.20;3.97;;;23.30;87.80;;;;;;5002932;28;20026;-83
2022/08/18 04:48:47;;;;;;;6.57;4.40;;;23.40;87.80;;;;;;5020376;28;20268;-80
2022/08/18 04:51:15;;;;;;;5.90;3.88;;;23.40;87.70;;;;;;5002788;28;20401;-80
2022/08/18 04:53:45;;;;;;;6.53;4.00;;;23.40;87.60;;;;;;5003471;28;20022;-83
2022/08/18 04:56:25;;;;;;;6.60;4.40;;;23.40;87.70;;;;;;5017587;28;20404;-83
2022/08/18 04:59:06;;;;;;;6.57;4.28;;;23.30;87.60;;;;;;5039938;28;20017;-84
2022/08/18 05:01:46;;;;;;;6.53;4.07;;;23.30;87.70;;;;;;5040254;28;20029;-83
2022/08/18 05:04:13;;;;;;;6.43;4.30;;;23.30;87.80;;;;;;5039438;28;20036;-84
2022/08/18 05:06:39;;;;;;;6.03;4.22;;;23.30;87.80;;;;;;5021496;28;20025;-84
2022/08/18 05:09:07;;;;;;;6.82;4.18;;;23.30;87.90;;;;;;5038866;28;20029;-83
2022/08/18 05:11:34;;;;;;;5.80;3.72;;;23.30;87.90;;;;;;5021144;28;20029;-83
2022/08/18 05:14:02;;;;;;;7.25;4.70;;;23.30;88.00;;;;;;5020543;28;20025;-84
2022/08/18 05:16:28;;;;;;;6.60;4.35;;;23.30;88.00;;;;;;5020787;28;20040;-83
2022/08/18 05:18:54;;;;;;;6.63;4.30;;;23.30;88.00;;;;;;5021581;28;20018;-85
2022/08/18 05:21:21;;;;;;;7.05;4.75;;;23.30;88.10;;;;;;5020384;28;20048;-84
2022/08/18 05:23:48;;;;;;;6.85;4.50;;;23.30;88.00;;;;;;5021190;28;20037;-85
2022/08/18 05:26:15;;;;;;;7.03;4.60;;;23.30;88.00;;;;;;5020788;28;20032;-81
2022/08/18 05:28:42;;;;;;;6.93;4.20;;;23.30;88.00;;;;;;5020247;28;20029;-83
2022/08/18 05:31:18;;;;;;;6.45;4.28;;;23.30;87.90;;;;;;5020217;28;20036;-83
2022/08/18 05:33:45;;;;;;;7.10;4.68;;;23.30;87.80;;;;;;5038520;28;20022;-83
2022/08/18 05:36:38;;;;;;;6.90;4.78;;;23.40;87.70;;;;;;5022938;28;20033;-85
2022/08/18 05:39:18;;;;;;;6.30;4.30;;;23.40;87.60;;;;;;5000268;28;20022;-86
2022/08/18 05:42:05;;;;;;;6.72;4.22;;;23.30;87.60;;;;;;5018141;28;20041;-81
2022/08/18 05:44:36;;;;;;;6.47;4.38;;;23.30;87.60;;;;;;5000331;28;20497;-84
2022/08/18 05:47:09;;;;;;;6.70;4.63;;;23.30;87.70;;;;;;5002746;28;20030;-85
2022/08/18 05:49:35;;;;;;;6.22;4.05;;;23.30;87.70;;;;;;5009678;28;20116;-84
2022/08/18 05:52:06;;;;;;;6.63;4.20;;;23.40;87.80;;;;;;5020950;28;20606;-85
2022/08/18 05:57:36;;;;;;;6.57;4.50;;;23.40;87.80;;;;;;5038962;28;20052;-84
2022/08/18 06:00:04;;;;;;;7.05;4.57;;;23.30;87.70;;;;;;5020095;28;20052;-82
2022/08/18 06:02:35;;;;;;;6.68;4.65;;;23.40;87.70;;;;;;5020946;28;20026;-83
2022/08/18 06:05:25;;;;;;;6.20;4.50;;;23.30;87.60;;;;;;5021372;28;20044;-80
2022/08/18 06:08:09;;;;;;;11.07;4.60;;;23.30;87.50;;;;;;5021277;28;20128;-83
2022/08/18 06:10:36;;;;;;;7.25;4.78;;;23.40;87.50;;;;;;5020306;28;20025;-82
2022/08/18 06:13:03;;;;;;;6.57;4.78;;;23.40;87.40;;;;;;5038668;28;20025;-83
2022/08/18 06:15:53;;;;;;;7.93;5.22;;;23.40;87.20;;;;;;5038620;28;20080;-84
2022/08/18 06:18:25;;;;;;;7.53;5.25;;;23.50;87.00;;;;;;5020359;28;20373;-83
2022/08/18 06:21:21;;;;;;;7.25;5.18;;;23.60;86.80;;;;;;5019885;28;20028;-84
2022/08/18 06:24:08;;;;;;;10.95;5.20;;;23.60;86.60;;;;;;5019950;28;20056;-83
2022/08/18 06:26:42;;;;;;;7.30;5.03;;;23.60;86.50;;;;;;5040325;28;20028;-84
2022/08/18 06:29:49;;;;;;;7.63;4.75;;;23.60;86.50;;;;;;5023853;28;20404;-85
2022/08/18 06:32:40;;;;;;;6.80;5.00;;;23.60;86.60;;;;;;5022320;28;20026;-84
2022/08/18 06:35:17;;;;;;;7.20;5.30;;;23.60;86.60;;;;;;5040096;28;20048;-83
2022/08/18 06:38:39;;;;;;;7.88;5.13;;;23.60;86.60;;;;;;5022089;28;20101;-83
2022/08/18 06:41:19;;;;;;;8.32;5.35;;;23.60;86.50;;;;;;5021952;28;20033;-83
2022/08/18 06:43:58;;;;;;;7.03;5.07;;;23.60;86.60;;;;;;5039292;28;20044;-83
2022/08/18 06:46:44;;;;;;;7.18;4.93;;;23.60;86.60;;;;;;5039141;28;20033;-83
2022/08/18 06:49:16;;;;;;;8.05;5.10;;;23.60;86.60;;;;;;5038607;28;20045;-84
2022/08/18 06:51:41;;;;;;;7.10;4.88;;;23.60;86.60;;;;;;5038556;28;20484;-83
2022/08/18 06:54:26;;;;;;;7.63;5.32;;;23.60;86.50;;;;;;5038168;28;20045;-83
2022/08/18 06:56:54;;;;;;;7.15;5.07;;;23.60;86.40;;;;;;5020464;28;20021;-83
2022/08/18 06:59:22;;;;;;;6.90;4.65;;;23.70;86.30;;;;;;5019954;28;20022;-83
2022/08/18 07:01:51;;;;;;;7.78;5.18;;;23.70;86.00;;;;;;5019864;28;20048;-83
2022/08/18 07:04:41;;;;;;;7.45;5.18;;;23.80;85.80;;;;;;5037224;28;20038;-82
2022/08/18 07:07:31;;;;;;;7.88;5.70;;;23.80;85.60;;;;;;5037303;28;20029;-83
2022/08/18 07:09:57;;;;;;;7.22;5.00;;;23.80;85.40;;;;;;5018992;28;20026;-83
2022/08/18 07:12:26;;;;;;;7.25;5.03;;;23.80;85.40;;;;;;5019057;28;20209;-83
2022/08/18 07:15:02;;;;;;;7.40;5.25;;;23.80;85.50;;;;;;5019438;28;20025;-83
2022/08/18 07:17:31;;;;;;;7.57;5.10;;;23.80;85.40;;;;;;5019261;28;20049;-83
2022/08/18 07:20:07;;;;;;;7.05;5.15;;;23.80;85.40;;;;;;5018494;28;20033;-83
2022/08/18 07:22:54;;;;;;;7.30;5.00;;;23.90;85.50;;;;;;5019152;28;20060;-83
2022/08/18 07:25:25;;;;;;;7.38;5.45;;;23.90;85.50;;;;;;5036701;28;20025;-83
2022/08/18 07:27:54;;;;;;;7.80;5.53;;;23.80;85.30;;;;;;5036694;28;20048;-83
2022/08/18 07:30:23;;;;;;;7.20;5.07;;;23.80;85.30;;;;;;5018708;28;20104;-83
2022/08/18 07:32:55;;;;;;;7.20;4.90;;;23.80;85.40;;;;;;5018668;28;20075;-83
2022/08/18 07:35:29;;;;;;;7.78;5.55;;;23.80;85.50;;;;;;5036532;28;20028;-83
2022/08/18 07:38:10;;;;;;;7.00;5.00;;;23.80;85.70;;;;;;5036039;28;20401;-83
2022/08/18 07:40:53;;;;;;;7.30;5.15;;;23.80;85.90;;;;;;5017701;28;20465;-83
2022/08/18 07:43:31;;;;;;;7.25;5.38;;;23.80;85.90;;;;;;5020644;28;20171;-84
2022/08/18 07:46:08;;;;;;;7.72;5.60;;;23.80;86.30;;;;;;5022505;28;20029;-83
2022/08/18 07:48:34;;;;;;;7.10;5.07;;;23.80;85.80;;;;;;5021652;28;20496;-84
2022/08/18 07:51:17;;;;;;;6.97;5.15;;;23.80;85.70;;;;;;5020938;28;20029;-83
2022/08/18 07:54:02;;;;;;;7.68;5.47;;;23.80;85.60;;;;;;5020476;28;20032;-84
2022/08/18 07:56:45;;;;;;;7.15;5.22;;;23.80;85.40;;;;;;5020818;28;20030;-84
2022/08/18 07:59:30;;;;;;;7.47;5.57;;;23.90;85.40;;;;;;5038044;28;20021;-85
2022/08/18 08:02:14;;;;;;;6.88;4.90;;;23.90;85.40;;;;;;5022163;28;20049;-83
2022/08/18 08:05:07;;;;;;;7.05;4.95;;;23.90;85.40;;;;;;5021142;28;20132;-84
2022/08/18 08:07:54;;;;;;;6.72;4.75;;;23.80;85.40;;;;;;5038859;28;20032;-84
2022/08/18 08:10:39;;;;;;;7.80;5.45;;;23.80;85.50;;;;;;5020121;28;20048;-84
2022/08/18 08:13:36;;;;;;;7.22;5.53;;;23.80;85.60;;;;;;5020645;28;20072;-84
2022/08/18 08:16:17;;;;;;;7.47;5.18;;;23.80;85.60;;;;;;5037673;28;20084;-84
2022/08/18 08:19:17;;;;;;;7.85;5.53;;;23.80;85.70;;;;;;5037584;28;20026;-84
2022/08/18 08:22:00;;;;;;;7.82;5.97;;;23.80;85.80;;;;;;5032921;28;20504;-85
2022/08/18 08:24:40;;;;;;;7.97;5.97;;;23.80;85.70;;;;;;5019229;28;20032;-85
2022/08/18 08:27:20;;;;;;;7.95;5.30;;;23.90;85.50;;;;;;5037731;28;20037;-84
2022/08/18 08:30:01;;;;;;;7.28;5.50;;;24.00;85.20;;;;;;5018628;28;20037;-84
2022/08/18 08:32:44;;;;;;;7.70;5.60;;;24.00;84.90;;;;;;5019254;28;20034;-83
2022/08/18 08:35:22;;;;;;;7.00;5.13;;;24.10;84.70;;;;;;5036460;28;20022;-82
2022/08/18 08:37:52;;;;;;;7.85;5.47;;;24.10;84.70;;;;;;5036609;28;20511;-83
2022/08/18 08:40:34;;;;;;;7.67;5.63;;;24.00;84.80;;;;;;5018386;28;20026;-83
2022/08/18 08:43:14;;;;;;;7.38;5.60;;;24.00;84.90;;;;;;5035980;28;20045;-83
2022/08/18 08:46:07;;;;;;;7.93;5.80;;;24.00;85.10;;;;;;5035527;28;20033;-84
2022/08/18 08:48:39;;;;;;;7.45;5.40;;;23.90;85.30;;;;;;5019622;28;20652;-84
2022/08/18 08:51:11;;;;;;;7.28;5.35;;;23.90;85.40;;;;;;5020764;28;20029;-84
2022/08/18 08:53:56;;;;;;;;;;;23.80;85.60;;;;;;5022070;28;20029;-84
2022/08/18 08:56:29;;;;;;;7.28;5.25;;;23.80;85.70;;;;;;5020309;28;19928;-84
2022/08/18 08:59:05;;;;;;;7.85;5.60;;;23.80;85.70;;;;;;5021182;28;20022;-83
2022/08/18 09:02:10;;;;;;;7.15;5.25;;;23.80;86.10;;;;;;5038557;28;20492;-83
2022/08/18 09:04:51;;;;;;;7.15;5.13;;;23.80;85.80;;;;;;4999083;28;20037;-83
2022/08/18 09:07:46;;;;;;;7.57;5.45;;;23.80;85.90;;;;;;5021309;28;20033;-83
2022/08/18 09:10:43;;;;;;;8.00;5.40;;;23.80;86.00;;;;;;5020470;28;20408;-83
2022/08/18 09:13:37;;;;;;;7.80;5.80;;;23.80;86.00;;;;;;5037926;28;20508;-84
2022/08/18 09:16:23;;;;;;;7.53;5.57;;;23.80;85.80;;;;;;5020724;28;20026;-82
2022/08/18 09:19:20;;;;;;;7.00;5.10;;;23.80;85.80;;;;;;5038576;28;20178;-82
2022/08/18 09:22:18;;;;;;;7.47;5.63;;;23.80;85.70;;;;;;5038505;28;20030;-84
2022/08/18 09:24:51;;;;;;;7.75;5.70;;;23.80;85.70;;;;;;5003018;28;20132;-83
2022/08/18 09:27:40;;;;;;;7.65;5.80;;;23.80;85.70;;;;;;5020311;28;20125;-83
2022/08/18 09:30:07;;;;;;;7.82;5.75;;;23.80;85.70;;;;;;5020109;28;20400;-84
2022/08/18 09:33:01;;;;;;;7.35;5.55;;;23.80;85.80;;;;;;5037917;28;20025;-84
2022/08/18 09:35:39;;;;;;;7.75;5.78;;;23.80;85.90;;;;;;4990770;28;20037;-85
2022/08/18 09:43:53;;;;;;;7.47;5.47;;;23.70;86.20;;;;;;5041482;28;20040;-84
2022/08/18 09:46:50;;;;;;;7.30;5.32;;;23.70;86.30;;;;;;5024090;28;20025;-83
2022/08/18 09:49:21;;;;;;;7.35;5.35;;;23.70;86.30;;;;;;5022678;28;20029;-83
2022/08/18 09:51:57;;;;;;;7.90;5.50;;;23.70;86.40;;;;;;5022341;28;20053;-83
2022/08/18 09:54:29;;;;;;;7.60;5.47;;;23.70;86.90;;;;;;5022509;28;20021;-83
2022/08/18 09:57:16;;;;;;;7.18;5.32;;;23.70;86.40;;;;;;5021978;28;20032;-84
2022/08/18 09:59:44;;;;;;;7.43;5.32;;;23.70;86.40;;;;;;5019457;28;20029;-83
2022/08/18 10:02:32;;;;;;;7.85;5.78;;;23.70;86.30;;;;;;5021585;28;20106;-83
2022/08/18 10:05:16;;;;;;;7.35;5.53;;;23.80;86.10;;;;;;5021344;28;20025;-85
2022/08/18 10:07:48;;;;;;;7.60;5.40;;;23.80;86.00;;;;;;5038961;28;20063;-84
2022/08/18 10:10:38;;;;;;;7.57;5.50;;;23.80;85.80;;;;;;5021642;28;20025;-83
2022/08/18 10:13:22;;;;;;;7.38;5.63;;;23.80;85.80;;;;;;5024210;28;20022;-82
2022/08/18 10:15:57;;;;;;;7.82;6.10;;;23.90;85.80;;;;;;5022836;28;20026;-82
2022/08/18 10:18:51;;;;;;;7.65;5.60;;;23.80;85.80;;;;;;5022349;28;20169;-82
2022/08/18 10:21:27;;;;;;;7.72;5.70;;;23.80;85.80;;;;;;5022315;28;20036;-83
2022/08/18 10:24:01;;;;;;;7.78;5.53;;;23.80;85.80;;;;;;5021950;28;20028;-84
2022/08/18 10:26:30;;;;;;;7.20;5.35;;;23.80;85.80;;;;;;5021540;28;20168;-83
2022/08/18 10:29:05;;;;;;;7.50;5.38;;;23.80;85.90;;;;;;5021170;28;20036;-83
2022/08/18 10:31:51;;;;;;;7.63;5.28;;;23.80;85.80;;;;;;5020577;28;20048;-83
2022/08/18 10:34:35;;;;;;;7.75;5.82;;;23.80;85.80;;;;;;5020647;28;20036;-82
2022/08/18 10:37:22;;;;;;;7.47;5.43;;;23.80;85.90;;;;;;5020449;28;20017;-82
2022/08/18 10:39:54;;;;;;;7.22;5.43;;;23.80;86.00;;;;;;5019777;28;20021;-83
2022/08/18 10:42:32;;;;;;;7.40;5.50;;;23.80;86.00;;;;;;5037880;28;20037;-83
2022/08/18 10:45:11;;;;;;;7.20;5.35;;;23.80;86.10;;;;;;5020016;28;20447;-82
2022/08/18 10:47:36;;;;;;;7.88;5.97;;;23.80;86.00;;;;;;5019964;28;20026;-82
2022/08/18 10:50:07;;;;;;;7.78;5.65;;;23.80;86.00;;;;;;5020295;28;20033;-83
2022/08/18 10:52:54;;;;;;;8.25;5.50;;;23.80;85.90;;;;;;5023414;28;20036;-83
2022/08/18 10:55:54;;;;;;;7.50;5.45;;;23.80;85.80;;;;;;5022376;28;20485;-83
2022/08/18 10:58:41;;;;;;;7.63;5.82;;;23.80;85.80;;;;;;5021861;28;20017;-84
2022/08/18 11:01:22;;;;;;;7.20;5.40;;;23.80;85.80;;;;;;5021563;28;20028;-83
2022/08/18 11:04:01;;;;;;;7.72;5.43;;;23.80;85.90;;;;;;5021748;28;20033;-83
2022/08/18 11:06:28;;;;;;;7.60;5.50;;;23.80;86.00;;;;;;5021320;28;20091;-83
2022/08/18 11:08:58;;;;;;;7.45;5.53;;;23.80;86.00;;;;;;5020952;28;20083;-83
2022/08/18 11:11:32;;;;;;;7.75;5.70;;;23.80;86.10;;;;;;5020133;28;20033;-83
2022/08/18 11:14:07;;;;;;;7.53;5.60;;;23.80;86.10;;;;;;5020595;28;20022;-84
2022/08/18 11:16:48;;;;;;;7.07;5.55;;;23.80;86.10;;;;;;5020118;28;20124;-83
2022/08/18 11:19:15;;;;;;;7.97;5.78;;;23.80;86.20;;;;;;5020092;28;20049;-83
2022/08/18 11:21:46;;;;;;;7.32;5.20;;;23.80;86.20;;;;;;5019538;28;20029;-83
2022/08/18 11:24:14;;;;;;;7.97;5.13;;;23.70;86.20;;;;;;5038197;28;20096;-83
2022/08/18 11:26:53;;;;;;;7.07;5.25;;;23.70;86.20;;;;;;5019730;28;20519;-84
2022/08/18 11:29:27;;;;;;;7.45;4.95;;;23.70;86.40;;;;;;5018978;28;20419;-81
2022/08/18 11:32:14;;;;;;;7.45;5.57;;;23.70;86.40;;;;;;5019147;28;20028;-83
2022/08/18 11:34:44;;;;;;;7.47;5.50;;;23.70;86.30;;;;;;5018811;28;20029;-83
2022/08/18 11:37:34;;;;;;;6.90;5.20;;;23.80;86.40;;;;;;5036781;28;20022;-83
2022/08/18 11:40:04;;;;;;;7.00;5.05;;;23.70;86.30;;;;;;5018773;28;20024;-83
2022/08/18 11:42:33;;;;;;;7.85;5.50;;;23.70;86.20;;;;;;5018837;28;20037;-83
2022/08/18 11:45:16;;;;;;;7.43;5.43;;;23.70;86.30;;;;;;5019018;28;20061;-83
2022/08/18 11:48:16;;;;;;;7.47;5.45;;;23.70;86.30;;;;;;5036203;28;20028;-83
2022/08/18 11:50:54;;;;;;;8.00;5.45;;;23.70;86.40;;;;;;5017834;28;20655;-83
2022/08/18 11:53:31;;;;;;;7.43;5.43;;;23.70;86.50;;;;;;5017866;28;20052;-83
2022/08/18 11:56:20;;;;;;;7.72;5.45;;;23.70;86.50;;;;;;5018354;28;20076;-83
2022/08/18 11:59:02;;;;;;;7.13;5.45;;;23.70;86.60;;;;;;5017566;28;20022;-82
2022/08/18 12:01:43;;;;;;;6.70;5.18;;;23.70;86.60;;;;;;5017968;28;20029;-83
2022/08/18 12:04:12;;;;;;;7.45;5.18;;;23.70;86.70;;;;;;5017634;28;20507;-82
2022/08/18 12:06:50;;;;;;;7.20;5.32;;;23.70;86.70;;;;;;5017613;28;20423;-83
2022/08/18 12:09:19;;;;;;;7.45;5.55;;;23.70;86.70;;;;;;5018029;28;20026;-82
2022/08/18 12:11:55;;;;;;;7.07;5.28;;;23.60;86.70;;;;;;5018232;28;20108;-83
2022/08/18 12:14:24;;;;;;;6.93;5.18;;;23.70;86.70;;;;;;5017994;28;20026;-83
2022/08/18 12:16:50;;;;;;;7.18;5.20;;;23.70;86.60;;;;;;5017564;28;20048;-83
2022/08/18 12:19:16;;;;;;;7.00;5.32;;;23.70;86.50;;;;;;5019923;28;20021;-84
2022/08/18 12:21:50;;;;;;;7.45;5.05;;;23.70;86.40;;;;;;5039438;28;20089;-84
2022/08/18 12:24:28;;;;;;;7.07;5.15;;;23.70;86.20;;;;;;5042110;28;20086;-83
2022/08/18 12:26:53;;;;;;;7.22;5.18;;;23.80;86.20;;;;;;5025095;28;20057;-83
2022/08/18 12:29:20;;;;;;;7.35;5.25;;;23.80;86.10;;;;;;5023916;28;20026;-82
2022/08/18 12:31:49;;;;;;;7.05;4.90;;;23.70;86.10;;;;;;5023959;28;20036;-83
2022/08/18 12:34:16;;;;;;;6.88;4.95;;;23.80;86.20;;;;;;5023739;28;20025;-83
2022/08/18 12:36:42;;;;;;;7.05;4.90;;;23.70;86.20;;;;;;5041713;28;20029;-83
2022/08/18 12:39:07;;;;;;;7.05;5.32;;;23.70;86.30;;;;;;5023419;28;20036;-84
2022/08/18 12:41:32;;;;;;;7.85;5.28;;;23.70;86.30;;;;;;5026800;28;20041;-84
2022/08/18 12:43:58;;;;;;;6.70;4.93;;;23.70;86.40;;;;;;5025137;28;20037;-83
2022/08/18 12:46:23;;;;;;;7.50;5.22;;;23.80;86.50;;;;;;5024603;28;20489;-82
2022/08/18 12:48:49;;;;;;;6.80;5.03;;;23.80;86.50;;;;;;5024296;28;20025;-83
2022/08/18 12:51:15;;;;;;;7.03;5.35;;;23.70;86.50;;;;;;5023289;28;20055;-83
2022/08/18 12:53:40;;;;;;;7.05;5.25;;;23.70;86.50;;;;;;5041490;28;20534;-83
2022/08/18 12:56:15;;;;;;;6.43;4.97;;;23.70;86.60;;;;;;5023546;28;20503;-83
2022/08/18 12:58:41;;;;;;;6.88;5.03;;;23.70;86.60;;;;;;5041233;28;20029;-83
2022/08/18 13:01:06;;;;;;;7.40;4.97;;;23.70;86.60;;;;;;5023027;28;20030;-82
2022/08/18 13:03:32;;;;;;;7.63;4.88;;;23.70;86.50;;;;;;5022841;28;20022;-82
2022/08/18 13:05:58;;;;;;;6.30;4.25;;;23.70;86.40;;;;;;5022292;28;20035;-82
2022/08/18 13:08:24;;;;;;;7.32;4.93;;;23.70;86.30;;;;;;5022930;28;20026;-83
2022/08/18 13:10:49;;;;;;;6.50;4.68;;;23.80;86.20;;;;;;5022006;28;20021;-83
2022/08/18 13:13:17;;;;;;;6.72;4.75;;;23.80;86.10;;;;;;5039965;28;20435;-82
2022/08/18 13:15:44;;;;;;;6.78;5.07;;;23.80;86.10;;;;;;5039154;28;20055;-82
2022/08/18 13:18:11;;;;;;;7.30;4.85;;;23.80;86.10;;;;;;5021104;28;20021;-83
2022/08/18 13:20:37;;;;;;;6.88;4.70;;;23.70;86.00;;;;;;5020951;28;20072;-82
2022/08/18 13:23:02;;;;;;;7.03;5.18;;;23.70;86.50;;;;;;5021239;28;20481;-82
2022/08/18 13:25:28;;;;;;;6.75;4.60;;;23.70;86.20;;;;;;5021315;28;20125;-82
2022/08/18 13:27:55;;;;;;;7.20;5.03;;;23.80;86.30;;;;;;5020626;28;20116;-82
2022/08/18 13:30:21;;;;;;;6.60;4.63;;;23.70;86.30;;;;;;5020634;28;20060;-82
2022/08/18 13:32:47;;;;;;;7.10;5.03;;;23.70;86.30;;;;;;5021103;28;20033;-82
2022/08/18 13:35:12;;;;;;;6.43;4.72;;;23.70;86.30;;;;;;5021203;28;20048;-82
2022/08/18 13:37:40;;;;;;;7.28;4.68;;;23.70;86.20;;;;;;5021131;28;20022;-81